sensor_id;sensor_type;location;lat;lon;timestamp;pressure;altitude;pressure_sealevel;temperature;humidity
47280;BME280;34064;44.942;0.008;2023-05-20T00:02:28;98929.50;;;17.97;42.19
47280;BME280;34064;44.942;0.008;2023-05-20T00:04:56;98926.44;;;17.92;42.41
47280;BME280;34064;44.942;0.008;2023-05-20T00:07:22;98924.41;;;17.86;42.26
47280;BME280;34064;44.942;0.008;2023-05-20T00:09:49;98926.56;;;17.82;42.50
47280;BME280;34064;44.942;0.008;2023-05-20T00:12:15;98933.41;;;17.76;42.59
47280;BME280;34064;44.942;0.008;2023-05-20T00:14:42;98926.84;;;17.71;42.60
47280;BME280;34064;44.942;0.008;2023-05-20T00:17:09;98925.31;;;17.68;42.85
47280;BME280;34064;44.942;0.008;2023-05-20T00:19:36;98926.63;;;17.64;43.10
47280;BME280;34064;44.942;0.008;2023-05-20T00:22:03;98926.97;;;17.61;42.89
47280;BME280;34064;44.942;0.008;2023-05-20T00:24:30;98927.47;;;17.56;43.27
47280;BME280;34064;44.942;0.008;2023-05-20T00:26:57;98922.91;;;17.57;42.79
47280;BME280;34064;44.942;0.008;2023-05-20T00:29:26;98919.53;;;17.55;43.44
47280;BME280;34064;44.942;0.008;2023-05-20T00:31:56;98916.16;;;17.53;43.17
47280;BME280;34064;44.942;0.008;2023-05-20T00:34:24;98921.19;;;17.48;43.17
47280;BME280;34064;44.942;0.008;2023-05-20T00:36:51;98918.81;;;17.44;43.48
47280;BME280;34064;44.942;0.008;2023-05-20T00:39:17;98917.28;;;17.42;43.05
47280;BME280;34064;44.942;0.008;2023-05-20T00:41:44;98916.06;;;17.36;43.46
47280;BME280;34064;44.942;0.008;2023-05-20T00:44:10;98918.06;;;17.34;43.55
47280;BME280;34064;44.942;0.008;2023-05-20T00:46:37;98918.41;;;17.31;43.67
47280;BME280;34064;44.942;0.008;2023-05-20T00:49:04;98920.56;;;17.27;44.03
47280;BME280;34064;44.942;0.008;2023-05-20T00:51:31;98920.03;;;17.24;43.78
47280;BME280;34064;44.942;0.008;2023-05-20T00:53:58;98914.00;;;17.22;44.00
47280;BME280;34064;44.942;0.008;2023-05-20T00:56:25;98917.66;;;17.21;44.13
47280;BME280;34064;44.942;0.008;2023-05-20T00:58:52;98912.59;;;17.18;43.77
47280;BME280;34064;44.942;0.008;2023-05-20T01:01:19;98910.91;;;17.17;44.13
47280;BME280;34064;44.942;0.008;2023-05-20T01:03:45;98903.03;;;17.15;43.82
47280;BME280;34064;44.942;0.008;2023-05-20T01:06:13;98905.19;;;17.11;44.33
47280;BME280;34064;44.942;0.008;2023-05-20T01:08:40;98899.13;;;17.09;44.05
47280;BME280;34064;44.942;0.008;2023-05-20T01:11:17;98903.50;;;17.10;44.02
47280;BME280;34064;44.942;0.008;2023-05-20T01:13:50;98902.66;;;17.10;44.19
47280;BME280;34064;44.942;0.008;2023-05-20T01:16:19;98901.81;;;17.09;44.05
47280;BME280;34064;44.942;0.008;2023-05-20T01:18:49;98885.88;;;17.08;43.97
47280;BME280;34064;44.942;0.008;2023-05-20T01:21:17;98885.34;;;17.04;44.21
47280;BME280;34064;44.942;0.008;2023-05-20T01:23:43;98886.66;;;17.00;44.40
47280;BME280;34064;44.942;0.008;2023-05-20T01:26:10;98892.50;;;16.95;44.46
47280;BME280;34064;44.942;0.008;2023-05-20T01:28:40;98885.72;;;16.91;44.40
47280;BME280;34064;44.942;0.008;2023-05-20T01:31:22;98888.56;;;16.90;44.71
47280;BME280;34064;44.942;0.008;2023-05-20T01:33:53;98887.22;;;16.86;44.46
47280;BME280;34064;44.942;0.008;2023-05-20T01:36:20;98887.34;;;16.84;44.33
47280;BME280;34064;44.942;0.008;2023-05-20T01:38:48;98889.50;;;16.80;44.29
47280;BME280;34064;44.942;0.008;2023-05-20T01:41:16;98884.44;;;16.77;44.44
47280;BME280;34064;44.942;0.008;2023-05-20T01:43:43;98888.13;;;16.76;44.57
47280;BME280;34064;44.942;0.008;2023-05-20T01:46:10;98896.09;;;16.68;44.96
47280;BME280;34064;44.942;0.008;2023-05-20T01:48:37;98890.06;;;16.66;44.83
47280;BME280;34064;44.942;0.008;2023-05-20T01:51:03;98892.75;;;16.66;44.75
47280;BME280;34064;44.942;0.008;2023-05-20T01:53:30;98885.69;;;16.65;44.99
47280;BME280;34064;44.942;0.008;2023-05-20T01:55:56;98885.00;;;16.63;45.12
47280;BME280;34064;44.942;0.008;2023-05-20T01:58:23;98886.16;;;16.60;45.26
47280;BME280;34064;44.942;0.008;2023-05-20T02:00:50;98883.25;;;16.53;45.31
47280;BME280;34064;44.942;0.008;2023-05-20T02:03:16;98876.50;;;16.49;45.51
47280;BME280;34064;44.942;0.008;2023-05-20T02:05:43;98881.31;;;16.46;45.66
47280;BME280;34064;44.942;0.008;2023-05-20T02:08:10;98874.44;;;16.43;45.80
47280;BME280;34064;44.942;0.008;2023-05-20T02:10:37;98872.38;;;16.37;45.92
47280;BME280;34064;44.942;0.008;2023-05-20T02:13:04;98864.25;;;16.29;46.51
47280;BME280;34064;44.942;0.008;2023-05-20T02:15:31;98865.56;;;16.25;46.26
47280;BME280;34064;44.942;0.008;2023-05-20T02:17:58;98871.38;;;16.20;46.41
47280;BME280;34064;44.942;0.008;2023-05-20T02:20:24;98876.19;;;16.16;46.25
47280;BME280;34064;44.942;0.008;2023-05-20T02:22:51;98876.47;;;16.13;46.33
47280;BME280;34064;44.942;0.008;2023-05-20T02:25:20;98872.72;;;16.06;46.66
47280;BME280;34064;44.942;0.008;2023-05-20T02:27:49;98879.53;;;16.00;46.81
47280;BME280;34064;44.942;0.008;2023-05-20T02:30:17;98887.03;;;15.97;47.06
47280;BME280;34064;44.942;0.008;2023-05-20T02:32:45;98889.16;;;15.93;47.34
47280;BME280;34064;44.942;0.008;2023-05-20T02:35:11;98889.34;;;15.92;47.34
47280;BME280;34064;44.942;0.008;2023-05-20T02:37:38;98884.81;;;15.92;46.88
47280;BME280;34064;44.942;0.008;2023-05-20T02:40:06;98880.28;;;15.93;47.00
47280;BME280;34064;44.942;0.008;2023-05-20T02:42:35;98877.75;;;15.91;47.12
47280;BME280;34064;44.942;0.008;2023-05-20T02:45:03;98874.25;;;15.90;47.25
47280;BME280;34064;44.942;0.008;2023-05-20T02:47:32;98875.06;;;15.91;47.02
47280;BME280;34064;44.942;0.008;2023-05-20T02:50:00;98878.91;;;15.88;47.17
47280;BME280;34064;44.942;0.008;2023-05-20T02:52:26;98873.56;;;15.88;47.54
47280;BME280;34064;44.942;0.008;2023-05-20T02:54:53;98872.16;;;15.84;47.91
47280;BME280;34064;44.942;0.008;2023-05-20T02:57:20;98869.06;;;15.79;48.34
47280;BME280;34064;44.942;0.008;2023-05-20T02:59:46;98865.69;;;15.77;48.10
47280;BME280;34064;44.942;0.008;2023-05-20T03:02:13;98867.97;;;15.72;48.42
47280;BME280;34064;44.942;0.008;2023-05-20T03:04:39;98862.91;;;15.69;49.17
47280;BME280;34064;44.942;0.008;2023-05-20T03:07:06;98869.41;;;15.66;48.64
47280;BME280;34064;44.942;0.008;2023-05-20T03:09:34;98861.50;;;15.65;48.83
47280;BME280;34064;44.942;0.008;2023-05-20T03:12:00;98856.47;;;15.62;48.99
47280;BME280;34064;44.942;0.008;2023-05-20T03:14:27;98853.09;;;15.59;49.43
47280;BME280;34064;44.942;0.008;2023-05-20T03:16:54;98855.06;;;15.57;49.60
47280;BME280;34064;44.942;0.008;2023-05-20T03:19:21;98849.34;;;15.52;49.13
47280;BME280;34064;44.942;0.008;2023-05-20T03:21:48;98847.22;;;15.46;49.80
47280;BME280;34064;44.942;0.008;2023-05-20T03:24:16;98857.53;;;15.41;49.46
47280;BME280;34064;44.942;0.008;2023-05-20T03:26:43;98858.81;;;15.37;50.14
47280;BME280;34064;44.942;0.008;2023-05-20T03:29:11;98855.91;;;15.30;50.49
47280;BME280;34064;44.942;0.008;2023-05-20T03:31:38;98855.34;;;15.26;50.61
47280;BME280;34064;44.942;0.008;2023-05-20T03:34:05;98859.16;;;15.24;50.48
47280;BME280;34064;44.942;0.008;2023-05-20T03:36:32;98852.97;;;15.23;50.10
47280;BME280;34064;44.942;0.008;2023-05-20T03:38:58;98848.88;;;15.19;50.28
47280;BME280;34064;44.942;0.008;2023-05-20T03:41:27;98850.19;;;15.15;50.60
47280;BME280;34064;44.942;0.008;2023-05-20T03:43:53;98853.69;;;15.16;50.29
47280;BME280;34064;44.942;0.008;2023-05-20T03:46:20;98853.28;;;15.10;50.15
47280;BME280;34064;44.942;0.008;2023-05-20T03:48:47;98854.72;;;15.05;50.44
47280;BME280;34064;44.942;0.008;2023-05-20T03:51:14;98862.03;;;15.03;50.13
47280;BME280;34064;44.942;0.008;2023-05-20T03:53:40;98859.63;;;15.00;50.15
47280;BME280;34064;44.942;0.008;2023-05-20T03:56:07;98851.94;;;14.96;50.06
47280;BME280;34064;44.942;0.008;2023-05-20T03:58:34;98853.91;;;14.94;50.53
47280;BME280;34064;44.942;0.008;2023-05-20T04:01:03;98841.78;;;14.90;50.59
47280;BME280;34064;44.942;0.008;2023-05-20T04:03:30;98848.13;;;14.89;50.05
47280;BME280;34064;44.942;0.008;2023-05-20T04:05:57;98852.91;;;14.86;50.21
47280;BME280;34064;44.942;0.008;2023-05-20T04:08:24;98849.13;;;14.78;50.41
47280;BME280;34064;44.942;0.008;2023-05-20T04:10:56;98855.91;;;14.73;50.48
47280;BME280;34064;44.942;0.008;2023-05-20T04:13:24;98852.25;;;14.74;50.73
47280;BME280;34064;44.942;0.008;2023-05-20T04:15:52;98852.25;;;14.74;50.41
47280;BME280;34064;44.942;0.008;2023-05-20T04:18:18;98847.56;;;14.66;51.42
47280;BME280;34064;44.942;0.008;2023-05-20T04:20:46;98850.41;;;14.64;50.96
47280;BME280;34064;44.942;0.008;2023-05-20T04:23:12;98857.00;;;14.60;51.30
47280;BME280;34064;44.942;0.008;2023-05-20T04:25:39;98852.50;;;14.61;51.02
47280;BME280;34064;44.942;0.008;2023-05-20T04:28:09;98857.00;;;14.60;51.52
47280;BME280;34064;44.942;0.008;2023-05-20T04:30:39;98851.66;;;14.60;50.95
47280;BME280;34064;44.942;0.008;2023-05-20T04:33:07;98851.97;;;14.57;51.20
47280;BME280;34064;44.942;0.008;2023-05-20T04:35:34;98853.34;;;14.61;50.99
47280;BME280;34064;44.942;0.008;2023-05-20T04:38:02;98847.72;;;14.64;51.26
47280;BME280;34064;44.942;0.008;2023-05-20T04:40:29;98844.50;;;14.61;51.57
47280;BME280;34064;44.942;0.008;2023-05-20T04:42:59;98836.47;;;14.61;51.58
47280;BME280;34064;44.942;0.008;2023-05-20T04:45:26;98841.66;;;14.62;51.57
47280;BME280;34064;44.942;0.008;2023-05-20T04:47:53;98829.75;;;14.66;51.19
47280;BME280;34064;44.942;0.008;2023-05-20T04:50:19;98826.75;;;14.70;51.46
47280;BME280;34064;44.942;0.008;2023-05-20T04:52:52;98829.16;;;14.73;51.25
47280;BME280;34064;44.942;0.008;2023-05-20T04:55:22;98815.63;;;14.74;51.94
47280;BME280;34064;44.942;0.008;2023-05-20T04:57:51;98815.91;;;14.81;51.58
47280;BME280;34064;44.942;0.008;2023-05-20T05:00:18;98811.13;;;14.85;51.63
47280;BME280;34064;44.942;0.008;2023-05-20T05:02:44;98810.00;;;14.87;51.58
47280;BME280;34064;44.942;0.008;2023-05-20T05:05:12;98812.09;;;14.93;51.79
47280;BME280;34064;44.942;0.008;2023-05-20T05:07:39;98805.44;;;14.97;51.86
47280;BME280;34064;44.942;0.008;2023-05-20T05:10:06;98802.31;;;15.02;51.26
47280;BME280;34064;44.942;0.008;2023-05-20T05:12:33;98791.63;;;15.02;52.37
47280;BME280;34064;44.942;0.008;2023-05-20T05:15:00;98797.94;;;15.11;51.53
47280;BME280;34064;44.942;0.008;2023-05-20T05:17:27;98795.28;;;15.11;51.68
47280;BME280;34064;44.942;0.008;2023-05-20T05:19:54;98797.78;;;15.12;51.74
47280;BME280;34064;44.942;0.008;2023-05-20T05:22:21;98804.28;;;15.10;51.80
47280;BME280;34064;44.942;0.008;2023-05-20T05:24:47;98794.00;;;15.15;51.88
47280;BME280;34064;44.942;0.008;2023-05-20T05:27:14;98789.75;;;15.22;51.74
47280;BME280;34064;44.942;0.008;2023-05-20T05:29:41;98795.09;;;15.22;52.27
47280;BME280;34064;44.942;0.008;2023-05-20T05:32:07;98784.78;;;15.27;51.39
47280;BME280;34064;44.942;0.008;2023-05-20T05:34:33;98788.31;;;15.28;51.40
47280;BME280;34064;44.942;0.008;2023-05-20T05:37:00;98790.13;;;15.27;51.55
47280;BME280;34064;44.942;0.008;2023-05-20T05:39:27;98788.16;;;15.29;51.59
47280;BME280;34064;44.942;0.008;2023-05-20T05:41:53;98786.16;;;15.32;51.75
47280;BME280;34064;44.942;0.008;2023-05-20T05:44:21;98784.31;;;15.32;51.73
47280;BME280;34064;44.942;0.008;2023-05-20T05:46:47;98787.53;;;15.36;51.90
47280;BME280;34064;44.942;0.008;2023-05-20T05:49:13;98782.59;;;15.41;51.53
47280;BME280;34064;44.942;0.008;2023-05-20T05:51:40;98771.59;;;15.44;51.88
47280;BME280;34064;44.942;0.008;2023-05-20T05:54:07;98770.91;;;15.42;52.11
47280;BME280;34064;44.942;0.008;2023-05-20T05:56:34;98766.91;;;15.46;51.50
47280;BME280;34064;44.942;0.008;2023-05-20T05:59:00;98763.78;;;15.51;51.63
47280;BME280;34064;44.942;0.008;2023-05-20T06:01:26;98765.47;;;15.52;51.63
47280;BME280;34064;44.942;0.008;2023-05-20T06:03:53;98769.31;;;15.49;51.85
47280;BME280;34064;44.942;0.008;2023-05-20T06:06:20;98766.03;;;15.55;51.71
47280;BME280;34064;44.942;0.008;2023-05-20T06:08:46;98760.09;;;15.62;51.46
47280;BME280;34064;44.942;0.008;2023-05-20T06:11:12;98766.25;;;15.62;51.86
47280;BME280;34064;44.942;0.008;2023-05-20T06:13:39;98753.75;;;15.63;51.70
47280;BME280;34064;44.942;0.008;2023-05-20T06:16:06;98759.75;;;15.65;51.79
47280;BME280;34064;44.942;0.008;2023-05-20T06:18:32;98757.50;;;15.70;51.29
47280;BME280;34064;44.942;0.008;2023-05-20T06:20:59;98761.41;;;15.75;51.80
47280;BME280;34064;44.942;0.008;2023-05-20T06:23:25;98750.53;;;15.77;51.72
47280;BME280;34064;44.942;0.008;2023-05-20T06:25:56;98748.22;;;15.82;51.44
47280;BME280;34064;44.942;0.008;2023-05-20T06:28:22;98742.00;;;15.92;51.25
47280;BME280;34064;44.942;0.008;2023-05-20T06:30:49;98739.84;;;15.95;51.35
47280;BME280;34064;44.942;0.008;2023-05-20T06:33:20;98738.94;;;16.04;51.28
47280;BME280;34064;44.942;0.008;2023-05-20T06:35:47;98732.47;;;16.15;50.97
47280;BME280;34064;44.942;0.008;2023-05-20T06:38:13;98738.84;;;16.14;50.77
47280;BME280;34064;44.942;0.008;2023-05-20T06:40:40;98734.84;;;16.18;51.02
47280;BME280;34064;44.942;0.008;2023-05-20T06:43:06;98723.81;;;16.21;50.81
47280;BME280;34064;44.942;0.008;2023-05-20T06:45:33;98728.69;;;16.26;50.75
47280;BME280;34064;44.942;0.008;2023-05-20T06:48:00;98722.03;;;16.30;50.73
47280;BME280;34064;44.942;0.008;2023-05-20T06:50:28;98724.56;;;16.32;50.70
47280;BME280;34064;44.942;0.008;2023-05-20T06:52:55;98725.09;;;16.35;50.81
47280;BME280;34064;44.942;0.008;2023-05-20T06:55:21;98717.25;;;16.42;50.92
47280;BME280;34064;44.942;0.008;2023-05-20T06:57:49;98728.38;;;16.47;50.90
47280;BME280;34064;44.942;0.008;2023-05-20T07:00:16;98714.78;;;16.49;51.15
47280;BME280;34064;44.942;0.008;2023-05-20T07:02:43;98726.03;;;16.52;51.23
47280;BME280;34064;44.942;0.008;2023-05-20T07:05:09;98724.88;;;16.55;51.15
47280;BME280;34064;44.942;0.008;2023-05-20T07:07:36;98722.06;;;16.57;51.05
47280;BME280;34064;44.942;0.008;2023-05-20T07:10:04;98718.38;;;16.58;51.09
47280;BME280;34064;44.942;0.008;2023-05-20T07:12:33;98715.38;;;16.61;50.84
47280;BME280;34064;44.942;0.008;2023-05-20T07:15:00;98723.09;;;16.64;50.89
47280;BME280;34064;44.942;0.008;2023-05-20T07:17:27;98721.63;;;16.69;50.85
47280;BME280;34064;44.942;0.008;2023-05-20T07:19:54;98718.78;;;16.71;50.91
47280;BME280;34064;44.942;0.008;2023-05-20T07:22:22;98722.97;;;16.74;50.93
47280;BME280;34064;44.942;0.008;2023-05-20T07:24:48;98718.13;;;16.77;50.95
47280;BME280;34064;44.942;0.008;2023-05-20T07:27:15;98717.81;;;16.80;50.88
47280;BME280;34064;44.942;0.008;2023-05-20T07:29:41;98713.84;;;16.84;50.89
47280;BME280;34064;44.942;0.008;2023-05-20T07:32:09;98716.56;;;16.93;50.93
47280;BME280;34064;44.942;0.008;2023-05-20T07:34:36;98710.72;;;16.97;50.72
47280;BME280;34064;44.942;0.008;2023-05-20T07:37:03;98717.31;;;17.03;51.03
47280;BME280;34064;44.942;0.008;2023-05-20T07:39:29;98707.41;;;17.04;50.89
47280;BME280;34064;44.942;0.008;2023-05-20T07:41:56;98713.28;;;17.07;50.80
47280;BME280;34064;44.942;0.008;2023-05-20T07:44:28;98714.66;;;17.11;50.82
47280;BME280;34064;44.942;0.008;2023-05-20T07:47:02;98706.09;;;17.16;50.66
47280;BME280;34064;44.942;0.008;2023-05-20T07:49:29;98704.28;;;17.25;50.69
47280;BME280;34064;44.942;0.008;2023-05-20T07:51:56;98702.28;;;17.27;50.76
47280;BME280;34064;44.942;0.008;2023-05-20T07:54:23;98700.78;;;17.33;50.58
47280;BME280;34064;44.942;0.008;2023-05-20T07:56:49;98697.94;;;17.34;50.53
47280;BME280;34064;44.942;0.008;2023-05-20T07:59:15;98693.91;;;17.38;50.48
47280;BME280;34064;44.942;0.008;2023-05-20T08:01:42;98697.28;;;17.40;50.57
47280;BME280;34064;44.942;0.008;2023-05-20T08:04:08;98698.47;;;17.46;50.38
47280;BME280;34064;44.942;0.008;2023-05-20T08:06:35;98694.63;;;17.49;50.54
47280;BME280;34064;44.942;0.008;2023-05-20T08:09:02;98692.25;;;17.54;50.21
47280;BME280;34064;44.942;0.008;2023-05-20T08:11:29;98687.94;;;17.61;50.35
47280;BME280;34064;44.942;0.008;2023-05-20T08:13:55;98681.88;;;17.67;50.13
47280;BME280;34064;44.942;0.008;2023-05-20T08:16:22;98683.22;;;17.71;50.09
47280;BME280;34064;44.942;0.008;2023-05-20T08:18:48;98679.53;;;17.72;49.99
47280;BME280;34064;44.942;0.008;2023-05-20T08:21:15;98680.06;;;17.84;49.88
47280;BME280;34064;44.942;0.008;2023-05-20T08:23:42;98676.53;;;17.84;49.65
47280;BME280;34064;44.942;0.008;2023-05-20T08:26:09;98678.38;;;17.83;49.83
47280;BME280;34064;44.942;0.008;2023-05-20T08:28:35;98669.84;;;17.96;49.57
47280;BME280;34064;44.942;0.008;2023-05-20T08:31:03;98674.72;;;18.01;49.53
47280;BME280;34064;44.942;0.008;2023-05-20T08:33:29;98668.50;;;18.08;49.62
47280;BME280;34064;44.942;0.008;2023-05-20T08:35:55;98661.25;;;18.17;49.65
47280;BME280;34064;44.942;0.008;2023-05-20T08:38:22;98661.22;;;18.34;49.26
47280;BME280;34064;44.942;0.008;2023-05-20T08:40:57;98655.66;;;18.44;49.45
47280;BME280;34064;44.942;0.008;2023-05-20T08:43:27;98645.19;;;18.57;49.17
47280;BME280;34064;44.942;0.008;2023-05-20T08:45:56;98638.78;;;18.66;49.30
47280;BME280;34064;44.942;0.008;2023-05-20T08:48:27;98641.09;;;18.78;48.98
47280;BME280;34064;44.942;0.008;2023-05-20T08:50:57;98632.97;;;18.86;49.03
47280;BME280;34064;44.942;0.008;2023-05-20T08:53:24;98628.25;;;18.96;48.58
47280;BME280;34064;44.942;0.008;2023-05-20T08:55:56;98625.88;;;19.01;48.19
47280;BME280;34064;44.942;0.008;2023-05-20T08:58:25;98634.59;;;19.04;48.65
47280;BME280;34064;44.942;0.008;2023-05-20T09:00:55;98623.50;;;19.07;48.50
47280;BME280;34064;44.942;0.008;2023-05-20T09:03:26;98622.09;;;19.19;48.21
47280;BME280;34064;44.942;0.008;2023-05-20T09:06:07;98621.38;;;19.25;48.05
47280;BME280;34064;44.942;0.008;2023-05-20T09:08:37;98615.44;;;19.30;47.96
47280;BME280;34064;44.942;0.008;2023-05-20T09:11:08;98607.16;;;19.40;48.28
47280;BME280;34064;44.942;0.008;2023-05-20T09:13:36;98605.69;;;19.52;48.04
47280;BME280;34064;44.942;0.008;2023-05-20T09:16:04;98605.28;;;19.63;47.68
47280;BME280;34064;44.942;0.008;2023-05-20T09:18:36;98602.22;;;19.67;47.56
47280;BME280;34064;44.942;0.008;2023-05-20T09:21:06;98602.28;;;19.58;47.65
47280;BME280;34064;44.942;0.008;2023-05-20T09:23:37;98596.84;;;19.67;47.72
47280;BME280;34064;44.942;0.008;2023-05-20T09:26:04;98597.41;;;19.77;47.65
47280;BME280;34064;44.942;0.008;2023-05-20T09:28:31;98576.81;;;19.84;47.17
47280;BME280;34064;44.942;0.008;2023-05-20T09:30:59;98575.47;;;19.88;47.30
47280;BME280;34064;44.942;0.008;2023-05-20T09:33:30;98573.69;;;19.95;47.06
47280;BME280;34064;44.942;0.008;2023-05-20T09:36:23;98577.13;;;20.04;47.35
47280;BME280;34064;44.942;0.008;2023-05-20T09:38:52;98571.94;;;20.18;47.05
47280;BME280;34064;44.942;0.008;2023-05-20T09:41:21;98559.59;;;20.23;46.68
47280;BME280;34064;44.942;0.008;2023-05-20T09:43:49;98563.88;;;20.33;46.48
47280;BME280;34064;44.942;0.008;2023-05-20T09:46:18;98556.94;;;20.45;46.25
47280;BME280;34064;44.942;0.008;2023-05-20T09:48:45;98547.75;;;20.54;45.85
47280;BME280;34064;44.942;0.008;2023-05-20T09:51:13;98551.38;;;20.62;45.86
47280;BME280;34064;44.942;0.008;2023-05-20T09:53:40;98544.19;;;20.69;45.46
47280;BME280;34064;44.942;0.008;2023-05-20T09:56:08;98542.88;;;20.80;45.78
47280;BME280;34064;44.942;0.008;2023-05-20T09:58:35;98536.78;;;20.93;45.39
47280;BME280;34064;44.942;0.008;2023-05-20T10:01:04;98528.13;;;20.97;44.90
47280;BME280;34064;44.942;0.008;2023-05-20T10:03:31;98524.47;;;21.05;45.02
47280;BME280;34064;44.942;0.008;2023-05-20T10:06:21;98528.72;;;21.14;45.13
47280;BME280;34064;44.942;0.008;2023-05-20T10:09:14;98527.03;;;21.13;44.84
47280;BME280;34064;44.942;0.008;2023-05-20T10:20:17;98511.28;;;21.39;44.67
47280;BME280;34064;44.942;0.008;2023-05-20T10:22:55;98503.28;;;21.52;45.11
47280;BME280;34064;44.942;0.008;2023-05-20T10:25:28;98496.75;;;21.68;44.95
47280;BME280;34064;44.942;0.008;2023-05-20T10:28:07;98487.34;;;21.86;44.63
47280;BME280;34064;44.942;0.008;2023-05-20T10:30:34;98485.13;;;21.96;44.34
47280;BME280;34064;44.942;0.008;2023-05-20T10:33:04;98479.56;;;22.11;44.29
47280;BME280;34064;44.942;0.008;2023-05-20T10:35:31;98483.81;;;22.27;44.27
47280;BME280;34064;44.942;0.008;2023-05-20T10:38:10;98476.63;;;22.48;43.65
47280;BME280;34064;44.942;0.008;2023-05-20T10:40:37;98466.47;;;22.63;42.73
47280;BME280;34064;44.942;0.008;2023-05-20T10:43:14;98461.09;;;22.77;42.93
47280;BME280;34064;44.942;0.008;2023-05-20T10:45:55;98456.13;;;22.87;42.60
47280;BME280;34064;44.942;0.008;2023-05-20T10:51:00;98459.88;;;22.86;41.71
47280;BME280;34064;44.942;0.008;2023-05-20T10:53:39;98455.31;;;22.93;41.53
47280;BME280;34064;44.942;0.008;2023-05-20T10:56:16;98456.38;;;23.05;41.58
47280;BME280;34064;44.942;0.008;2023-05-20T10:58:44;98449.28;;;23.18;41.48
47280;BME280;34064;44.942;0.008;2023-05-20T11:01:10;98438.06;;;23.28;41.38
47280;BME280;34064;44.942;0.008;2023-05-20T11:03:40;98434.09;;;23.30;41.14
47280;BME280;34064;44.942;0.008;2023-05-20T11:06:16;98431.16;;;23.39;40.97
47280;BME280;34064;44.942;0.008;2023-05-20T11:08:43;98418.25;;;23.54;40.76
47280;BME280;34064;44.942;0.008;2023-05-20T11:11:11;98416.75;;;23.58;40.90
47280;BME280;34064;44.942;0.008;2023-05-20T11:13:38;98415.69;;;23.73;40.90
47280;BME280;34064;44.942;0.008;2023-05-20T11:16:05;98404.59;;;23.88;40.63
47280;BME280;34064;44.942;0.008;2023-05-20T11:18:32;98399.38;;;23.99;40.46
47280;BME280;34064;44.942;0.008;2023-05-20T11:21:02;98390.13;;;24.14;40.59
47280;BME280;34064;44.942;0.008;2023-05-20T11:23:29;98385.94;;;24.18;40.58
47280;BME280;34064;44.942;0.008;2023-05-20T11:25:56;98376.72;;;24.26;40.63
47280;BME280;34064;44.942;0.008;2023-05-20T11:28:23;98361.34;;;24.45;40.63
47280;BME280;34064;44.942;0.008;2023-05-20T11:30:51;98351.47;;;24.57;40.29
47280;BME280;34064;44.942;0.008;2023-05-20T11:33:18;98354.34;;;24.63;40.05
47280;BME280;34064;44.942;0.008;2023-05-20T11:35:47;98349.91;;;24.75;40.11
47280;BME280;34064;44.942;0.008;2023-05-20T11:38:15;98337.47;;;24.86;39.85
47280;BME280;34064;44.942;0.008;2023-05-20T11:40:45;98335.28;;;25.01;39.67
47280;BME280;34064;44.942;0.008;2023-05-20T11:43:13;98327.22;;;25.13;37.91
47280;BME280;34064;44.942;0.008;2023-05-20T11:45:51;98326.56;;;25.18;38.43
47280;BME280;34064;44.942;0.008;2023-05-20T11:48:18;98310.66;;;25.40;38.83
47280;BME280;34064;44.942;0.008;2023-05-20T11:50:47;98314.38;;;25.46;37.99
47280;BME280;34064;44.942;0.008;2023-05-20T11:53:21;98305.41;;;25.64;38.48
47280;BME280;34064;44.942;0.008;2023-05-20T11:55:53;98306.06;;;25.59;37.69
47280;BME280;34064;44.942;0.008;2023-05-20T11:58:23;98311.88;;;25.63;38.19
47280;BME280;34064;44.942;0.008;2023-05-20T12:00:50;98313.25;;;25.72;37.30
47280;BME280;34064;44.942;0.008;2023-05-20T12:03:17;98307.81;;;25.72;37.77
47280;BME280;34064;44.942;0.008;2023-05-20T12:05:44;98308.78;;;25.78;37.16
47280;BME280;34064;44.942;0.008;2023-05-20T12:08:13;98299.94;;;25.82;36.62
47280;BME280;34064;44.942;0.008;2023-05-20T12:10:40;98299.31;;;25.80;36.28
47280;BME280;34064;44.942;0.008;2023-05-20T12:13:07;98306.28;;;25.76;36.37
47280;BME280;34064;44.942;0.008;2023-05-20T12:15:36;98306.88;;;25.78;36.51
47280;BME280;34064;44.942;0.008;2023-05-20T12:18:03;98291.94;;;25.99;36.75
47280;BME280;34064;44.942;0.008;2023-05-20T12:20:30;98280.97;;;26.06;36.01
47280;BME280;34064;44.942;0.008;2023-05-20T12:22:59;98285.78;;;26.23;36.12
47280;BME280;34064;44.942;0.008;2023-05-20T12:25:26;98271.63;;;26.44;35.67
47280;BME280;34064;44.942;0.008;2023-05-20T12:27:54;98263.38;;;26.63;34.62
47280;BME280;34064;44.942;0.008;2023-05-20T12:30:22;98255.81;;;26.65;35.20
47280;BME280;34064;44.942;0.008;2023-05-20T12:32:49;98255.81;;;26.65;35.84
47280;BME280;34064;44.942;0.008;2023-05-20T12:35:35;98254.03;;;26.71;35.52
47280;BME280;34064;44.942;0.008;2023-05-20T12:38:03;98247.22;;;26.80;35.14
47280;BME280;34064;44.942;0.008;2023-05-20T12:40:30;98243.78;;;26.85;35.18
47280;BME280;34064;44.942;0.008;2023-05-20T12:42:56;98247.50;;;26.60;35.68
47280;BME280;34064;44.942;0.008;2023-05-20T12:45:24;98276.81;;;26.34;36.14
47280;BME280;34064;44.942;0.008;2023-05-20T12:47:50;98296.28;;;25.89;35.85
47280;BME280;34064;44.942;0.008;2023-05-20T12:50:17;98298.28;;;25.63;37.04
47280;BME280;34064;44.942;0.008;2023-05-20T12:52:43;98309.44;;;25.36;37.37
47280;BME280;34064;44.942;0.008;2023-05-20T12:55:10;98316.13;;;25.15;37.57
47280;BME280;34064;44.942;0.008;2023-05-20T12:57:46;98320.69;;;24.96;37.24
47280;BME280;34064;44.942;0.008;2023-05-20T13:00:13;98328.13;;;24.82;38.17
47280;BME280;34064;44.942;0.008;2023-05-20T13:02:41;98332.44;;;24.64;38.39
47280;BME280;34064;44.942;0.008;2023-05-20T13:05:08;98330.19;;;24.54;38.20
47280;BME280;34064;44.942;0.008;2023-05-20T13:07:35;98338.00;;;24.37;38.10
47280;BME280;34064;44.942;0.008;2023-05-20T13:10:01;98352.56;;;24.18;38.24
47280;BME280;34064;44.942;0.008;2023-05-20T13:12:30;98355.09;;;24.06;38.60
47280;BME280;34064;44.942;0.008;2023-05-20T13:14:57;98365.56;;;23.95;38.42
47280;BME280;34064;44.942;0.008;2023-05-20T13:17:23;98370.81;;;23.77;38.51